Time;durP1;ratioP1;P1;durP2;ratioP2;P2;SDS_P1;SDS_P2;PMS_P1;PMS_P2;Temp;Humidity;BMP_temperature;BMP_pressure;BME280_temperature;BME280_humidity;BME280_pressure;Samples;Min_cycle;Max_cycle;Signal;HPM_P1;HPM_P2
2021/09/04 00:00:02;;;;;;;28.05;16.77;;;;;;;;;;4996522;28;20195;-71
2021/09/04 00:02:27;;;;;;;34.13;17.55;;;;;;;;;;5008037;28;20246;-71
2021/09/04 00:04:53;;;;;;;34.47;18.02;;;;;;;;;;4998150;28;20642;-72
2021/09/04 00:07:18;;;;;;;28.33;17.08;;;;;;;;;;5016659;28;20543;-71
2021/09/04 00:09:43;;;;;;;36.13;18.08;;;;;;;;;;5000442;28;20642;-71
2021/09/04 00:12:09;;;;;;;35.47;18.40;;;;;;;;;;5012976;28;20181;-71
2021/09/04 00:14:34;;;;;;;39.28;18.77;;;;;;;;;;5001163;28;20191;-71
2021/09/04 00:17:00;;;;;;;36.20;19.25;;;;;;;;;;5013503;28;20198;-72
2021/09/04 00:19:25;;;;;;;42.70;21.40;;;;;;;;;;5000477;28;20190;-71
2021/09/04 00:21:51;;;;;;;39.20;20.05;;;;;;;;;;5009549;28;20220;-71
2021/09/04 00:24:16;;;;;;;32.60;17.42;;;;;;;;;;5004304;28;20182;-71
2021/09/04 00:26:41;;;;;;;33.33;18.40;;;;;;;;;;5008416;28;20197;-72
2021/09/04 00:29:07;;;;;;;34.85;17.02;;;;;;;;;;5011930;28;20182;-72
2021/09/04 00:31:32;;;;;;;34.60;18.83;;;;;;;;;;5002826;28;20196;-71
2021/09/04 00:33:58;;;;;;;33.88;16.90;;;;;;;;;;5011560;28;20269;-72
2021/09/04 00:36:23;;;;;;;32.42;17.92;;;;;;;;;;5006215;28;20769;-72
2021/09/04 00:38:49;;;;;;;27.17;16.90;;;;;;;;;;5011551;28;20317;-70
2021/09/04 00:41:19;;;;;;;34.55;19.05;;;;;;;;;;5001188;28;20203;-72
2021/09/04 00:43:44;;;;;;;32.83;16.95;;;;;;;;;;5009683;28;20194;-72
2021/09/04 00:46:10;;;;;;;41.45;18.40;;;;;;;;;;5003361;28;20647;-71
2021/09/04 00:48:37;;;;;;;38.05;17.77;;;;;;;;;;5007528;28;20346;-71
2021/09/04 00:51:03;;;;;;;35.58;19.25;;;;;;;;;;5004852;28;20721;-71
2021/09/04 00:53:29;;;;;;;33.15;17.60;;;;;;;;;;5008271;28;20270;-72
2021/09/04 00:55:54;;;;;;;28.70;16.55;;;;;;;;;;5005805;28;20189;-72
2021/09/04 00:58:20;;;;;;;31.33;17.00;;;;;;;;;;5006248;28;20217;-68
2021/09/04 01:00:53;;;;;;;36.67;17.55;;;;;;;;;;5011259;28;20198;-71
2021/09/04 01:03:18;;;;;;;30.27;16.95;;;;;;;;;;4995575;28;20297;-71
2021/09/04 01:05:47;;;;;;;34.78;17.25;;;;;;;;;;5012385;28;20223;-69
2021/09/04 01:08:12;;;;;;;34.50;16.27;;;;;;;;;;5000466;28;20564;-72
2021/09/04 01:10:38;;;;;;;31.10;17.70;;;;;;;;;;5004750;28;20191;-70
2021/09/04 01:13:04;;;;;;;35.13;16.75;;;;;;;;;;4999518;28;20670;-71
2021/09/04 01:15:29;;;;;;;34.38;18.00;;;;;;;;;;5013172;28;20302;-71
2021/09/04 01:17:54;;;;;;;33.88;17.88;;;;;;;;;;5002998;28;20653;-71
2021/09/04 01:20:20;;;;;;;32.10;17.80;;;;;;;;;;5011279;28;20201;-71
2021/09/04 01:22:45;;;;;;;35.15;17.67;;;;;;;;;;5000047;28;20571;-71
2021/09/04 01:25:12;;;;;;;34.35;18.13;;;;;;;;;;5013031;28;20215;-70
2021/09/04 01:27:39;;;;;;;35.63;16.65;;;;;;;;;;5000682;28;20183;-71
2021/09/04 01:30:07;;;;;;;36.05;18.25;;;;;;;;;;5008643;28;20195;-70
2021/09/04 01:32:32;;;;;;;34.40;18.17;;;;;;;;;;5007983;28;20289;-72
2021/09/04 01:35:09;;;;;;;30.30;17.13;;;;;;;;;;5002096;28;20265;-71
2021/09/04 01:37:35;;;;;;;28.75;16.73;;;;;;;;;;5006345;28;20724;-70
2021/09/04 01:40:01;;;;;;;39.13;17.83;;;;;;;;;;5002525;28;20190;-71
2021/09/04 01:42:26;;;;;;;32.58;16.98;;;;;;;;;;5006389;28;20249;-69
2021/09/04 01:44:52;;;;;;;30.98;17.50;;;;;;;;;;5002694;28;20205;-71
2021/09/04 01:47:17;;;;;;;30.20;17.17;;;;;;;;;;5005294;28;20186;-72
2021/09/04 01:49:42;;;;;;;29.05;16.85;;;;;;;;;;4999702;28;20281;-72
2021/09/04 01:52:08;;;;;;;32.85;16.73;;;;;;;;;;5008956;28;20217;-72
2021/09/04 01:54:34;;;;;;;29.35;16.77;;;;;;;;;;4997403;28;20190;-69
2021/09/04 01:57:01;;;;;;;39.33;17.20;;;;;;;;;;5009768;28;20186;-73
2021/09/04 01:59:26;;;;;;;32.88;17.13;;;;;;;;;;4997751;28;20202;-72
2021/09/04 02:01:52;;;;;;;39.72;18.25;;;;;;;;;;5006520;28;20595;-70
2021/09/04 02:04:17;;;;;;;36.33;18.40;;;;;;;;;;5004325;28;20289;-71
2021/09/04 02:06:42;;;;;;;26.20;17.55;;;;;;;;;;5006546;28;20676;-72
2021/09/04 02:09:08;;;;;;;34.50;17.77;;;;;;;;;;5009320;28;20631;-71
2021/09/04 02:11:33;;;;;;;34.55;17.35;;;;;;;;;;4997707;28;20662;-70
2021/09/04 02:13:58;;;;;;;30.95;17.55;;;;;;;;;;5007516;28;20211;-71
2021/09/04 02:16:24;;;;;;;29.05;17.63;;;;;;;;;;5000866;28;20195;-71
2021/09/04 02:18:49;;;;;;;34.05;16.60;;;;;;;;;;5010809;28;20200;-71
2021/09/04 02:21:14;;;;;;;33.58;17.50;;;;;;;;;;4999322;28;20278;-68
2021/09/04 02:23:41;;;;;;;35.45;16.80;;;;;;;;;;5007166;28;20215;-71
2021/09/04 02:26:06;;;;;;;37.47;18.20;;;;;;;;;;4998828;28;20186;-70
2021/09/04 02:28:32;;;;;;;33.33;18.05;;;;;;;;;;5004173;28;20557;-72
2021/09/04 02:30:57;;;;;;;33.53;17.17;;;;;;;;;;4999440;28;20285;-72
2021/09/04 02:33:22;;;;;;;36.72;16.88;;;;;;;;;;5009686;28;20634;-72
2021/09/04 02:35:48;;;;;;;35.78;18.17;;;;;;;;;;5003302;28;20201;-71
2021/09/04 02:38:13;;;;;;;31.58;17.52;;;;;;;;;;5005876;28;20190;-71
2021/09/04 02:40:38;;;;;;;26.80;16.05;;;;;;;;;;5008982;28;20197;-72
2021/09/04 02:43:04;;;;;;;34.83;17.25;;;;;;;;;;4999036;28;20211;-72
2021/09/04 02:45:29;;;;;;;31.98;16.13;;;;;;;;;;5008777;28;20183;-70
2021/09/04 02:47:55;;;;;;;29.27;15.95;;;;;;;;;;5001439;28;20187;-67
2021/09/04 02:50:20;;;;;;;31.90;16.27;;;;;;;;;;5008188;28;20198;-72
2021/09/04 02:52:46;;;;;;;27.85;15.57;;;;;;;;;;5000319;28;20260;-71
2021/09/04 02:55:11;;;;;;;32.60;15.98;;;;;;;;;;5005532;28;20197;-71
2021/09/04 02:57:36;;;;;;;28.67;15.57;;;;;;;;;;4997703;28;20218;-70
2021/09/04 03:00:03;;;;;;;22.45;15.13;;;;;;;;;;5008247;28;20181;-73
2021/09/04 03:02:29;;;;;;;25.10;14.55;;;;;;;;;;4998219;28;20235;-71
2021/09/04 03:04:54;;;;;;;29.65;15.15;;;;;;;;;;5007053;28;20186;-71
2021/09/04 03:07:20;;;;;;;24.08;14.40;;;;;;;;;;5007022;28;20289;-73
2021/09/04 03:09:45;;;;;;;26.00;14.40;;;;;;;;;;4997173;28;20199;-72
2021/09/04 03:12:10;;;;;;;24.33;13.98;;;;;;;;;;5004525;28;20183;-72
2021/09/04 03:14:36;;;;;;;27.63;14.05;;;;;;;;;;4999689;28;20198;-73
2021/09/04 03:17:01;;;;;;;21.02;13.85;;;;;;;;;;5008499;28;20333;-68
2021/09/04 03:19:26;;;;;;;24.48;14.15;;;;;;;;;;5002113;28;20628;-73
2021/09/04 03:21:52;;;;;;;24.73;14.63;;;;;;;;;;5006288;28;20310;-74
2021/09/04 03:24:17;;;;;;;23.83;14.02;;;;;;;;;;4999841;28;20198;-73
2021/09/04 03:26:42;;;;;;;26.95;14.43;;;;;;;;;;5004251;28;20210;-73
2021/09/04 03:29:08;;;;;;;25.88;14.02;;;;;;;;;;4998005;28;20182;-72
2021/09/04 03:31:33;;;;;;;28.30;13.95;;;;;;;;;;5004946;28;20594;-73
2021/09/04 03:33:58;;;;;;;22.40;13.48;;;;;;;;;;4999057;28;20183;-74
2021/09/04 03:36:24;;;;;;;22.65;13.52;;;;;;;;;;5007482;28;20195;-73
2021/09/04 03:38:49;;;;;;;21.52;13.18;;;;;;;;;;5007578;28;20218;-71
2021/09/04 03:41:14;;;;;;;22.85;13.13;;;;;;;;;;4993593;28;20205;-73
2021/09/04 03:43:40;;;;;;;25.60;13.73;;;;;;;;;;5003740;28;20207;-73
2021/09/04 03:46:05;;;;;;;23.77;13.45;;;;;;;;;;4996788;28;20202;-73
2021/09/04 03:48:30;;;;;;;23.45;12.60;;;;;;;;;;5002167;28;20608;-74
2021/09/04 03:50:55;;;;;;;22.45;12.45;;;;;;;;;;4994503;28;20233;-73
2021/09/04 03:53:21;;;;;;;26.55;14.27;;;;;;;;;;4999421;28;20175;-70
2021/09/04 03:55:46;;;;;;;20.67;13.15;;;;;;;;;;4988505;28;20195;-72
2021/09/04 03:58:11;;;;;;;23.30;13.77;;;;;;;;;;5003929;28;20210;-71
2021/09/04 04:00:37;;;;;;;24.48;12.73;;;;;;;;;;4998003;28;20246;-72
2021/09/04 04:03:02;;;;;;;22.27;12.85;;;;;;;;;;5000150;28;20223;-72
2021/09/04 04:05:28;;;;;;;24.05;13.18;;;;;;;;;;4998532;28;20218;-71
2021/09/04 04:07:53;;;;;;;22.17;12.23;;;;;;;;;;5008361;28;20202;-71
2021/09/04 04:10:18;;;;;;;22.77;13.20;;;;;;;;;;5006152;28;20604;-72
2021/09/04 04:12:44;;;;;;;26.42;14.00;;;;;;;;;;4994638;28;20586;-72
2021/09/04 04:15:10;;;;;;;19.20;13.13;;;;;;;;;;5004641;28;20262;-72
2021/09/04 04:17:35;;;;;;;21.00;12.73;;;;;;;;;;4991576;28;20195;-72
2021/09/04 04:20:00;;;;;;;22.80;12.93;;;;;;;;;;4999140;28;20660;-72
2021/09/04 04:22:26;;;;;;;21.17;12.60;;;;;;;;;;4990433;28;20211;-72
2021/09/04 04:24:51;;;;;;;20.60;13.38;;;;;;;;;;5000930;28;20226;-73
2021/09/04 04:27:17;;;;;;;21.40;13.10;;;;;;;;;;4992103;28;20209;-71
2021/09/04 04:29:42;;;;;;;21.15;13.35;;;;;;;;;;5002846;28;20238;-73
2021/09/04 04:32:07;;;;;;;23.33;13.60;;;;;;;;;;4995788;28;20195;-73
2021/09/04 04:34:33;;;;;;;26.08;14.18;;;;;;;;;;5005727;28;20191;-72
2021/09/04 04:36:58;;;;;;;22.77;13.65;;;;;;;;;;5009105;28;20232;-72
2021/09/04 04:39:23;;;;;;;21.80;13.35;;;;;;;;;;4997966;28;20590;-72
2021/09/04 04:41:49;;;;;;;20.08;13.05;;;;;;;;;;5007262;28;20603;-72
2021/09/04 04:44:14;;;;;;;22.85;13.55;;;;;;;;;;4997924;28;20187;-73
2021/09/04 04:46:39;;;;;;;24.35;13.65;;;;;;;;;;5004299;28;20332;-73
2021/09/04 04:49:04;;;;;;;23.58;13.77;;;;;;;;;;4992684;28;20682;-71
2021/09/04 04:51:30;;;;;;;21.83;13.43;;;;;;;;;;5009071;28;20186;-73
2021/09/04 04:53:55;;;;;;;27.58;14.40;;;;;;;;;;5000794;28;20198;-74
2021/09/04 04:56:20;;;;;;;22.95;14.20;;;;;;;;;;5011180;28;20189;-74
2021/09/04 04:58:46;;;;;;;24.63;14.80;;;;;;;;;;4999455;28;20214;-72
2021/09/04 05:01:11;;;;;;;25.58;14.38;;;;;;;;;;5007938;28;20171;-72
2021/09/04 05:03:36;;;;;;;23.40;14.60;;;;;;;;;;4998765;28;20219;-72
2021/09/04 05:06:02;;;;;;;23.75;15.70;;;;;;;;;;5005287;28;20210;-73
2021/09/04 05:08:27;;;;;;;25.73;15.27;;;;;;;;;;5004193;28;20187;-73
2021/09/04 05:10:53;;;;;;;23.38;14.68;;;;;;;;;;4999329;28;20724;-72
2021/09/04 05:13:18;;;;;;;24.45;14.30;;;;;;;;;;5003401;28;20186;-73
2021/09/04 05:15:44;;;;;;;22.92;15.35;;;;;;;;;;4991503;28;20253;-73
2021/09/04 05:18:10;;;;;;;24.27;15.25;;;;;;;;;;5001284;28;20190;-73
2021/09/04 05:20:37;;;;;;;26.20;14.80;;;;;;;;;;4994693;28;20198;-72
2021/09/04 05:23:02;;;;;;;27.23;15.57;;;;;;;;;;4992188;28;20209;-73
2021/09/04 05:25:27;;;;;;;22.35;15.15;;;;;;;;;;4992453;28;20192;-71
2021/09/04 05:27:53;;;;;;;24.77;15.38;;;;;;;;;;5003921;28;20518;-73
2021/09/04 05:30:18;;;;;;;20.95;15.20;;;;;;;;;;4999036;28;20195;-71
2021/09/04 05:32:44;;;;;;;27.15;15.70;;;;;;;;;;5002387;28;20195;-72
2021/09/04 05:35:09;;;;;;;20.52;14.40;;;;;;;;;;4989808;28;20699;-69
2021/09/04 05:37:34;;;;;;;23.15;15.35;;;;;;;;;;5015413;28;20206;-71
2021/09/04 05:40:00;;;;;;;26.38;15.57;;;;;;;;;;5001127;28;20269;-73
2021/09/04 05:42:25;;;;;;;20.35;14.32;;;;;;;;;;4995978;28;20207;-73
2021/09/04 05:44:51;;;;;;;26.40;15.82;;;;;;;;;;5001025;28;20601;-72
2021/09/04 05:47:16;;;;;;;24.83;14.63;;;;;;;;;;4994310;28;20187;-73
2021/09/04 05:49:42;;;;;;;22.73;13.43;;;;;;;;;;5003079;28;20886;-73
2021/09/04 05:52:07;;;;;;;22.23;13.73;;;;;;;;;;4995057;28;20191;-72
2021/09/04 05:54:33;;;;;;;19.02;12.00;;;;;;;;;;5007652;28;20202;-73
2021/09/04 05:56:58;;;;;;;20.20;12.48;;;;;;;;;;4309690;28;10000804;-73
2021/09/04 05:59:23;;;;;;;20.30;11.75;;;;;;;;;;5006099;28;20210;-73
2021/09/04 06:01:49;;;;;;;18.80;12.50;;;;;;;;;;4994282;28;20278;-74
2021/09/04 06:04:14;;;;;;;20.88;12.00;;;;;;;;;;4998361;28;20675;-71
2021/09/04 06:06:40;;;;;;;18.92;12.65;;;;;;;;;;4992964;28;20258;-72
2021/09/04 06:09:05;;;;;;;19.25;12.02;;;;;;;;;;5001593;28;20277;-72
2021/09/04 06:11:31;;;;;;;20.85;11.75;;;;;;;;;;5000275;28;20286;-72
2021/09/04 06:13:58;;;;;;;20.58;12.27;;;;;;;;;;4995158;28;20270;-73
2021/09/04 06:16:23;;;;;;;18.92;11.88;;;;;;;;;;5001547;28;20199;-72
2021/09/04 06:18:49;;;;;;;18.75;12.38;;;;;;;;;;4998754;28;20201;-73
2021/09/04 06:21:14;;;;;;;20.05;11.98;;;;;;;;;;5002015;28;20187;-73
2021/09/04 06:23:39;;;;;;;21.35;12.25;;;;;;;;;;4996393;28;20211;-72
2021/09/04 06:26:04;;;;;;;21.02;12.20;;;;;;;;;;5001140;28;20297;-73
2021/09/04 06:28:30;;;;;;;17.17;11.52;;;;;;;;;;4995486;28;20277;-73
2021/09/04 06:30:55;;;;;;;23.50;12.95;;;;;;;;;;5002180;28;20214;-73
2021/09/04 06:33:20;;;;;;;18.42;11.35;;;;;;;;;;4992504;28;20269;-72
2021/09/04 06:35:46;;;;;;;20.17;11.57;;;;;;;;;;5003339;28;20186;-72
2021/09/04 06:38:13;;;;;;;18.40;11.32;;;;;;;;;;5010586;28;20190;-72
2021/09/04 06:40:39;;;;;;;17.67;10.73;;;;;;;;;;4996136;28;20197;-73
2021/09/04 06:43:04;;;;;;;18.90;10.68;;;;;;;;;;5001757;28;20199;-72
2021/09/04 06:45:29;;;;;;;19.45;10.88;;;;;;;;;;4989432;28;20190;-70
2021/09/04 06:47:55;;;;;;;18.13;11.15;;;;;;;;;;4997538;28;20182;-73
2021/09/04 06:50:20;;;;;;;15.70;10.85;;;;;;;;;;4994165;28;20195;-71
2021/09/04 06:52:45;;;;;;;17.25;10.55;;;;;;;;;;5009709;28;20190;-72
2021/09/04 06:55:11;;;;;;;15.10;10.70;;;;;;;;;;4996216;28;20651;-74
2021/09/04 06:57:36;;;;;;;19.42;10.70;;;;;;;;;;5004495;28;20291;-73
2021/09/04 07:00:05;;;;;;;14.90;10.23;;;;;;;;;;4996249;28;20533;-73
2021/09/04 07:02:31;;;;;;;19.52;11.18;;;;;;;;;;5008971;28;20564;-71
2021/09/04 07:04:56;;;;;;;14.93;10.65;;;;;;;;;;4998328;28;20237;-70
2021/09/04 07:07:21;;;;;;;16.10;9.65;;;;;;;;;;4999353;28;20187;-71
2021/09/04 07:09:47;;;;;;;15.88;10.35;;;;;;;;;;4998614;28;20198;-71
2021/09/04 07:12:12;;;;;;;20.05;10.00;;;;;;;;;;4996594;28;20179;-71
2021/09/04 07:14:38;;;;;;;20.45;10.30;;;;;;;;;;5003704;28;20689;-71
2021/09/04 07:17:03;;;;;;;15.52;9.82;;;;;;;;;;5000357;28;20196;-73
2021/09/04 07:19:28;;;;;;;14.13;9.65;;;;;;;;;;5002277;28;20249;-71
2021/09/04 07:21:53;;;;;;;16.35;9.15;;;;;;;;;;4994129;28;21695;-71
2021/09/04 07:24:19;;;;;;;15.63;8.43;;;;;;;;;;5001317;28;20214;-72
2021/09/04 07:26:44;;;;;;;15.88;8.95;;;;;;;;;;4994621;28;20270;-72
2021/09/04 07:29:09;;;;;;;17.15;9.15;;;;;;;;;;5001573;28;20225;-72
2021/09/04 07:31:35;;;;;;;16.98;9.00;;;;;;;;;;4989362;28;20187;-67
2021/09/04 07:34:00;;;;;;;11.93;8.93;;;;;;;;;;4999577;28;20179;-73
2021/09/04 07:36:25;;;;;;;16.27;9.10;;;;;;;;;;4991232;28;20266;-71
2021/09/04 07:38:51;;;;;;;15.90;8.90;;;;;;;;;;4997568;28;20214;-71
2021/09/04 07:41:16;;;;;;;15.82;8.63;;;;;;;;;;5006967;28;20194;-67
2021/09/04 07:43:41;;;;;;;13.75;8.52;;;;;;;;;;4995028;28;20215;-70
2021/09/04 07:46:07;;;;;;;14.02;8.55;;;;;;;;;;4658645;28;10000009;-73
2021/09/04 07:48:32;;;;;;;14.95;8.55;;;;;;;;;;4990929;28;20195;-73
2021/09/04 07:50:57;;;;;;;16.52;8.98;;;;;;;;;;4999219;28;20190;-71
2021/09/04 07:53:23;;;;;;;14.15;8.57;;;;;;;;;;4989918;28;20183;-70
2021/09/04 07:55:48;;;;;;;16.67;9.02;;;;;;;;;;4998929;28;20655;-72
2021/09/04 07:58:14;;;;;;;14.70;9.40;;;;;;;;;;4986193;28;20706;-71
2021/09/04 08:00:40;;;;;;;18.50;8.73;;;;;;;;;;5000187;28;20191;-72
2021/09/04 08:03:05;;;;;;;14.45;8.93;;;;;;;;;;4985126;28;20234;-71
2021/09/04 08:05:31;;;;;;;14.70;8.77;;;;;;;;;;5000730;28;20190;-71
2021/09/04 08:07:56;;;;;;;17.48;9.10;;;;;;;;;;4997511;28;20195;-72
2021/09/04 08:10:21;;;;;;;17.38;9.07;;;;;;;;;;5002107;28;20175;-71
2021/09/04 08:12:47;;;;;;;16.95;8.25;;;;;;;;;;5005307;28;20213;-71
2021/09/04 08:15:12;;;;;;;14.00;9.05;;;;;;;;;;4999444;28;20264;-72
2021/09/04 08:17:37;;;;;;;14.32;9.02;;;;;;;;;;5005530;28;20201;-70
2021/09/04 08:20:04;;;;;;;15.05;9.20;;;;;;;;;;4997864;28;20744;-71
2021/09/04 08:22:29;;;;;;;17.70;8.93;;;;;;;;;;5006952;28;20210;-71
2021/09/04 08:24:55;;;;;;;17.05;9.48;;;;;;;;;;4996497;28;20187;-71
2021/09/04 08:27:21;;;;;;;15.50;9.00;;;;;;;;;;5007784;28;20275;-71
2021/09/04 08:29:46;;;;;;;17.70;8.95;;;;;;;;;;5001631;28;20273;-71
2021/09/04 08:32:12;;;;;;;14.45;8.70;;;;;;;;;;5009131;28;20516;-73
2021/09/04 08:34:37;;;;;;;15.27;8.30;;;;;;;;;;5002576;28;20221;-72
2021/09/04 08:37:03;;;;;;;16.08;8.93;;;;;;;;;;5006094;28;20233;-71
2021/09/04 08:39:29;;;;;;;13.35;8.68;;;;;;;;;;5009804;28;20195;-71
2021/09/04 08:41:54;;;;;;;17.63;8.95;;;;;;;;;;5002026;28;20280;-71
2021/09/04 08:44:20;;;;;;;13.15;8.30;;;;;;;;;;5010083;28;20289;-71
2021/09/04 08:46:46;;;;;;;13.23;8.48;;;;;;;;;;5003774;28;20183;-74
2021/09/04 08:49:11;;;;;;;12.85;8.68;;;;;;;;;;5006437;28;20191;-72
2021/09/04 08:51:36;;;;;;;13.82;8.52;;;;;;;;;;5005648;28;20191;-73
2021/09/04 08:54:02;;;;;;;14.45;8.90;;;;;;;;;;5009056;28;20187;-71
2021/09/04 08:56:28;;;;;;;15.15;8.43;;;;;;;;;;5002151;28;20637;-73
2021/09/04 08:58:53;;;;;;;13.07;7.97;;;;;;;;;;5010287;28;20222;-72
2021/09/04 09:01:27;;;;;;;14.40;8.27;;;;;;;;;;5001702;28;20179;-72
2021/09/04 09:03:53;;;;;;;15.95;8.95;;;;;;;;;;5020878;28;20234;-75
2021/09/04 09:06:26;;;;;;;17.05;8.40;;;;;;;;;;5000149;28;21960;-71
2021/09/04 09:08:51;;;;;;;16.38;8.80;;;;;;;;;;5008215;28;20278;-72
2021/09/04 09:11:16;;;;;;;16.02;8.88;;;;;;;;;;5000351;28;20186;-72
2021/09/04 09:13:48;;;;;;;12.60;8.77;;;;;;;;;;5009560;28;20217;-72
2021/09/04 09:16:18;;;;;;;14.98;9.27;;;;;;;;;;5009000;28;20241;-72
2021/09/04 09:18:58;;;;;;;15.43;8.65;;;;;;;;;;5000214;28;20202;-72
2021/09/04 09:21:29;;;;;;;14.38;8.88;;;;;;;;;;5008839;28;20201;-72
2021/09/04 09:24:18;;;;;;;15.68;8.55;;;;;;;;;;5003381;28;20545;-71
2021/09/04 09:26:48;;;;;;;15.43;8.68;;;;;;;;;;5002689;28;20191;-73
2021/09/04 09:29:23;;;;;;;14.85;8.98;;;;;;;;;;5002475;28;20187;-72
2021/09/04 09:31:49;;;;;;;15.80;9.05;;;;;;;;;;5010259;28;21021;-68
2021/09/04 09:34:16;;;;;;;17.17;9.60;;;;;;;;;;5002573;28;20187;-72
2021/09/04 09:36:52;;;;;;;13.15;9.02;;;;;;;;;;5006854;28;20285;-72
2021/09/04 09:39:18;;;;;;;13.00;8.57;;;;;;;;;;4998596;28;20279;-71
2021/09/04 09:41:48;;;;;;;14.30;8.53;;;;;;;;;;5008754;28;20274;-71
2021/09/04 09:44:24;;;;;;;13.85;8.23;;;;;;;;;;4999672;28;20205;-70
2021/09/04 09:46:58;;;;;;;13.18;8.38;;;;;;;;;;5004556;28;20560;-71
2021/09/04 09:49:44;;;;;;;13.23;8.25;;;;;;;;;;4999344;28;20603;-71
2021/09/04 09:52:15;;;;;;;14.27;8.27;;;;;;;;;;5007150;28;20236;-70
2021/09/04 09:54:41;;;;;;;15.43;8.40;;;;;;;;;;4999946;28;20540;-70
2021/09/04 09:57:11;;;;;;;15.23;9.30;;;;;;;;;;5007098;28;20179;-70
2021/09/04 09:59:38;;;;;;;17.70;9.50;;;;;;;;;;4997819;28;20592;-73
2021/09/04 10:02:08;;;;;;;14.30;9.45;;;;;;;;;;5006220;28;20221;-69
2021/09/04 10:04:35;;;;;;;15.70;9.10;;;;;;;;;;5003527;28;20333;-73
2021/09/04 10:07:04;;;;;;;12.48;8.00;;;;;;;;;;5006987;28;20708;-68
2021/09/04 10:09:29;;;;;;;12.95;8.60;;;;;;;;;;4998566;28;20290;-69
2021/09/04 10:11:56;;;;;;;16.75;9.52;;;;;;;;;;5004843;28;20666;-68
2021/09/04 10:14:22;;;;;;;14.20;8.05;;;;;;;;;;4998804;28;20179;-70
2021/09/04 10:16:52;;;;;;;13.77;8.50;;;;;;;;;;5008208;28;20558;-70
2021/09/04 10:19:20;;;;;;;14.10;8.02;;;;;;;;;;5005772;28;20222;-71
2021/09/04 10:21:46;;;;;;;11.93;8.13;;;;;;;;;;4996933;28;20262;-70
2021/09/04 10:24:13;;;;;;;12.27;9.20;;;;;;;;;;5006777;28;20646;-71
2021/09/04 10:26:42;;;;;;;12.15;8.68;;;;;;;;;;4997575;28;20273;-70
2021/09/04 10:29:12;;;;;;;13.60;8.52;;;;;;;;;;5007902;28;20214;-72
2021/09/04 10:32:00;;;;;;;12.27;8.38;;;;;;;;;;5000512;28;20204;-71
2021/09/04 10:34:35;;;;;;;16.10;9.10;;;;;;;;;;5006778;28;20257;-70
2021/09/04 10:37:16;;;;;;;16.17;9.30;;;;;;;;;;4998170;28;20252;-69
2021/09/04 10:39:50;;;;;;;12.77;8.48;;;;;;;;;;5006162;28;20329;-73
2021/09/04 10:42:19;;;;;;;14.73;9.50;;;;;;;;;;4999588;28;20564;-69
2021/09/04 10:44:47;;;;;;;14.07;8.88;;;;;;;;;;5005952;28;20183;-72
2021/09/04 10:47:14;;;;;;;17.17;9.10;;;;;;;;;;4998452;28;20194;-73
2021/09/04 10:49:42;;;;;;;16.25;9.00;;;;;;;;;;5004643;28;20179;-72
2021/09/04 10:52:08;;;;;;;14.25;9.07;;;;;;;;;;4994532;28;20193;-72
2021/09/04 10:54:56;;;;;;;14.93;8.70;;;;;;;;;;5009255;28;20197;-69
2021/09/04 10:57:22;;;;;;;12.25;8.00;;;;;;;;;;4998706;28;20205;-73
2021/09/04 11:00:07;;;;;;;13.57;8.63;;;;;;;;;;5007901;28;20195;-74
2021/09/04 11:02:45;;;;;;;14.90;8.93;;;;;;;;;;4998943;28;20301;-70
2021/09/04 11:05:43;;;;;;;16.02;7.68;;;;;;;;;;5006996;28;20274;-70
2021/09/04 11:08:33;;;;;;;13.07;8.75;;;;;;;;;;4999060;28;20739;-72
2021/09/04 11:11:19;;;;;;;13.07;9.77;;;;;;;;;;5006532;28;20263;-74
2021/09/04 11:13:52;;;;;;;14.40;9.90;;;;;;;;;;4994389;28;20194;-73
2021/09/04 11:16:24;;;;;;;15.93;9.98;;;;;;;;;;5007384;28;20182;-72
2021/09/04 11:18:50;;;;;;;14.43;10.15;;;;;;;;;;4998758;28;20322;-74
2021/09/04 11:21:15;;;;;;;15.93;9.50;;;;;;;;;;5006547;28;20266;-73
2021/09/04 11:23:42;;;;;;;17.52;9.35;;;;;;;;;;4997891;28;20310;-73
2021/09/04 11:26:07;;;;;;;12.07;8.68;;;;;;;;;;5004311;28;20202;-74
2021/09/04 11:28:34;;;;;;;12.65;8.63;;;;;;;;;;5000298;28;20186;-68
2021/09/04 11:31:00;;;;;;;11.45;8.43;;;;;;;;;;5008218;28;20671;-70
2021/09/04 11:33:26;;;;;;;14.88;7.93;;;;;;;;;;4998660;28;20199;-75
2021/09/04 11:35:55;;;;;;;12.05;8.20;;;;;;;;;;5007798;28;20545;-73
2021/09/04 11:38:20;;;;;;;13.05;8.50;;;;;;;;;;5004844;28;20701;-72
2021/09/04 11:40:47;;;;;;;13.80;8.50;;;;;;;;;;4988478;28;20302;-68
2021/09/04 11:43:16;;;;;;;12.63;7.85;;;;;;;;;;5000712;28;20242;-72
2021/09/04 11:45:41;;;;;;;13.45;7.70;;;;;;;;;;4997371;28;20484;-68
2021/09/04 11:48:11;;;;;;;11.43;7.03;;;;;;;;;;5006255;28;20201;-72
2021/09/04 11:50:36;;;;;;;13.18;7.30;;;;;;;;;;4994916;28;20491;-71
2021/09/04 11:53:12;;;;;;;11.50;8.52;;;;;;;;;;5004825;28;20258;-72
2021/09/04 11:55:38;;;;;;;16.20;8.65;;;;;;;;;;4996283;28;20656;-71
2021/09/04 11:58:09;;;;;;;16.02;9.65;;;;;;;;;;5001812;28;20214;-72
2021/09/04 12:00:36;;;;;;;17.42;9.93;;;;;;;;;;4995513;28;20496;-69
2021/09/04 12:03:02;;;;;;;11.98;8.40;;;;;;;;;;5001569;28;20226;-72
2021/09/04 12:05:31;;;;;;;16.35;9.65;;;;;;;;;;4998701;28;20339;-71
2021/09/04 12:08:04;;;;;;;12.98;9.48;;;;;;;;;;5003240;28;20199;-73
2021/09/04 12:10:31;;;;;;;13.93;9.15;;;;;;;;;;4998933;28;20642;-71
2021/09/04 12:13:18;;;;;;;15.90;9.60;;;;;;;;;;5006018;28;20282;-71
2021/09/04 12:15:44;;;;;;;18.30;9.85;;;;;;;;;;4997402;28;20261;-72
2021/09/04 12:18:09;;;;;;;15.48;9.05;;;;;;;;;;5005150;28;20313;-72
2021/09/04 12:20:45;;;;;;;14.98;9.50;;;;;;;;;;4998633;28;21181;-68
2021/09/04 12:23:18;;;;;;;12.65;9.32;;;;;;;;;;5004325;28;20232;-71
2021/09/04 12:25:46;;;;;;;17.85;7.72;;;;;;;;;;5006856;28;20199;-71
2021/09/04 12:28:13;;;;;;;13.18;8.15;;;;;;;;;;5003036;28;20214;-72
2021/09/04 12:30:57;;;;;;;14.40;8.88;;;;;;;;;;5004604;28;20268;-72
2021/09/04 12:33:24;;;;;;;16.08;8.95;;;;;;;;;;4998411;28;20183;-72
2021/09/04 12:36:00;;;;;;;14.73;8.85;;;;;;;;;;5006394;28;20187;-71
2021/09/04 12:38:54;;;;;;;16.58;8.60;;;;;;;;;;4995235;28;20279;-72
2021/09/04 12:41:19;;;;;;;13.98;8.55;;;;;;;;;;5001021;28;20203;-71
2021/09/04 12:43:52;;;;;;;15.10;9.00;;;;;;;;;;4998649;28;20223;-70
2021/09/04 12:46:42;;;;;;;12.70;8.40;;;;;;;;;;5003775;28;20201;-70
2021/09/04 12:49:23;;;;;;;11.32;7.80;;;;;;;;;;5009961;28;20282;-72
2021/09/04 12:52:13;;;;;;;16.13;8.30;;;;;;;;;;5004276;28;20197;-68
2021/09/04 12:54:52;;;;;;;11.18;7.60;;;;;;;;;;5006641;28;20689;-70
2021/09/04 12:57:17;;;;;;;11.18;7.90;;;;;;;;;;4996386;28;20194;-70
2021/09/04 12:59:45;;;;;;;13.07;8.00;;;;;;;;;;4996911;28;20187;-71
2021/09/04 13:02:11;;;;;;;12.48;8.35;;;;;;;;;;5002991;28;20207;-72
2021/09/04 13:04:37;;;;;;;14.13;8.27;;;;;;;;;;4995614;28;20666;-69
2021/09/04 13:07:03;;;;;;;16.75;8.25;;;;;;;;;;5006589;28;20183;-70
2021/09/04 13:09:28;;;;;;;17.20;7.57;;;;;;;;;;4996892;28;20207;-72
2021/09/04 13:11:53;;;;;;;13.05;7.60;;;;;;;;;;5007327;28;20675;-73
2021/09/04 13:14:18;;;;;;;10.98;7.65;;;;;;;;;;4998326;28;20641;-70
2021/09/04 13:16:44;;;;;;;11.60;7.15;;;;;;;;;;5006703;28;20179;-71
2021/09/04 13:19:09;;;;;;;14.18;7.22;;;;;;;;;;5000573;28;20241;-70
2021/09/04 13:21:34;;;;;;;12.18;6.80;;;;;;;;;;5009560;28;20187;-70
2021/09/04 13:24:00;;;;;;;14.10;7.43;;;;;;;;;;5002277;28;20217;-71
2021/09/04 13:26:25;;;;;;;13.73;6.90;;;;;;;;;;5006399;28;20210;-69
2021/09/04 13:28:50;;;;;;;11.50;7.50;;;;;;;;;;5005163;28;20206;-70
2021/09/04 13:31:16;;;;;;;11.40;7.43;;;;;;;;;;4997530;28;20198;-70
2021/09/04 13:33:41;;;;;;;9.15;6.30;;;;;;;;;;5006419;28;20193;-71
2021/09/04 13:36:06;;;;;;;11.77;6.15;;;;;;;;;;4999553;28;20190;-70
2021/09/04 13:38:32;;;;;;;10.43;6.53;;;;;;;;;;5004883;28;20240;-69
2021/09/04 13:40:57;;;;;;;11.65;6.40;;;;;;;;;;4999483;28;20268;-70
2021/09/04 13:43:22;;;;;;;13.18;6.47;;;;;;;;;;5008200;28;20215;-70
2021/09/04 13:45:48;;;;;;;10.50;6.57;;;;;;;;;;4999969;28;20236;-70
2021/09/04 13:48:13;;;;;;;16.05;6.68;;;;;;;;;;5008678;28;20278;-71
2021/09/04 13:50:39;;;;;;;9.35;6.25;;;;;;;;;;5000199;28;20179;-70
2021/09/04 13:53:04;;;;;;;9.95;6.30;;;;;;;;;;5005271;28;20182;-67
2021/09/04 13:55:30;;;;;;;10.80;6.32;;;;;;;;;;4998638;28;20555;-70
2021/09/04 13:57:55;;;;;;;10.75;6.40;;;;;;;;;;5007018;28;20305;-70
2021/09/04 14:00:21;;;;;;;13.02;6.88;;;;;;;;;;5006060;28;20187;-71
2021/09/04 14:02:46;;;;;;;7.60;5.85;;;;;;;;;;4997841;28;20218;-71
2021/09/04 14:05:11;;;;;;;9.07;6.07;;;;;;;;;;5005663;28;20573;-69
2021/09/04 14:07:37;;;;;;;8.77;5.80;;;;;;;;;;4997793;28;20601;-71
2021/09/04 14:10:02;;;;;;;14.65;6.43;;;;;;;;;;5004607;28;20401;-68
2021/09/04 14:12:28;;;;;;;8.50;6.07;;;;;;;;;;4999272;28;20191;-70
2021/09/04 14:14:53;;;;;;;11.98;6.07;;;;;;;;;;5003542;28;20195;-71
2021/09/04 14:17:18;;;;;;;10.48;6.57;;;;;;;;;;4998909;28;20178;-70
2021/09/04 14:19:44;;;;;;;12.25;6.30;;;;;;;;;;5003096;28;20252;-70
2021/09/04 14:22:09;;;;;;;10.20;5.90;;;;;;;;;;5003094;28;20273;-69